sensor_id;sensor_type;location;lat;lon;timestamp;pressure;altitude;pressure_sealevel;temperature;humidity
22389;BME280;11362;48.102;11.620;2022-11-18T00:01:20;93590.06;;;23.47;40.73
22389;BME280;11362;48.102;11.620;2022-11-18T00:03:46;93586.50;;;23.46;40.75
22389;BME280;11362;48.102;11.620;2022-11-18T00:06:14;93587.31;;;23.47;40.71
22389;BME280;11362;48.102;11.620;2022-11-18T00:08:41;93581.75;;;23.47;40.61
22389;BME280;11362;48.102;11.620;2022-11-18T00:11:10;93578.19;;;23.46;40.67
22389;BME280;11362;48.102;11.620;2022-11-18T00:13:36;93576.66;;;23.45;40.70
22389;BME280;11362;48.102;11.620;2022-11-18T00:16:07;93570.38;;;23.45;40.47
22389;BME280;11362;48.102;11.620;2022-11-18T00:18:33;93564.81;;;23.45;40.77
22389;BME280;11362;48.102;11.620;2022-11-18T00:21:06;93562.81;;;23.45;40.54
22389;BME280;11362;48.102;11.620;2022-11-18T00:23:32;93563.25;;;23.44;40.64
22389;BME280;11362;48.102;11.620;2022-11-18T00:26:05;93557.72;;;23.44;40.66
22389;BME280;11362;48.102;11.620;2022-11-18T00:28:31;93555.72;;;23.44;40.59
22389;BME280;11362;48.102;11.620;2022-11-18T00:31:08;93557.25;;;23.45;40.61
22389;BME280;11362;48.102;11.620;2022-11-18T00:33:33;93560.03;;;23.45;40.50
22389;BME280;11362;48.102;11.620;2022-11-18T00:35:59;93554.50;;;23.45;40.59
22389;BME280;11362;48.102;11.620;2022-11-18T00:38:26;93552.97;;;23.44;40.34
22389;BME280;11362;48.102;11.620;2022-11-18T00:41:06;93554.94;;;23.44;40.52
22389;BME280;11362;48.102;11.620;2022-11-18T00:43:32;93547.41;;;23.44;40.32
22389;BME280;11362;48.102;11.620;2022-11-18T00:45:58;93548.66;;;23.43;40.42
22389;BME280;11362;48.102;11.620;2022-11-18T00:48:23;93538.00;;;23.42;40.58
22389;BME280;11362;48.102;11.620;2022-11-18T00:50:50;93542.81;;;23.42;40.34
22389;BME280;11362;48.102;11.620;2022-11-18T00:53:16;93531.72;;;23.42;40.38
22389;BME280;11362;48.102;11.620;2022-11-18T00:55:42;93536.03;;;23.42;39.99
22389;BME280;11362;48.102;11.620;2022-11-18T00:58:07;93538.78;;;23.42;40.49
22389;BME280;11362;48.102;11.620;2022-11-18T01:00:33;93526.19;;;23.42;40.21
22389;BME280;11362;48.102;11.620;2022-11-18T01:02:58;93526.47;;;23.43;40.33
22389;BME280;11362;48.102;11.620;2022-11-18T01:05:23;93530.78;;;23.44;40.37
22389;BME280;11362;48.102;11.620;2022-11-18T01:07:48;93537.13;;;23.45;40.51
22389;BME280;11362;48.102;11.620;2022-11-18T01:10:15;93528.81;;;23.45;40.31
22389;BME280;11362;48.102;11.620;2022-11-18T01:12:40;93530.78;;;23.44;40.32
22389;BME280;11362;48.102;11.620;2022-11-18T01:15:06;93532.78;;;23.44;40.55
22389;BME280;11362;48.102;11.620;2022-11-18T01:17:31;93530.00;;;23.44;40.47
22389;BME280;11362;48.102;11.620;2022-11-18T01:19:57;93516.63;;;23.42;40.28
22389;BME280;11362;48.102;11.620;2022-11-18T01:22:22;93521.38;;;23.42;40.42
22389;BME280;11362;48.102;11.620;2022-11-18T01:24:47;93522.16;;;23.42;40.35
22389;BME280;11362;48.102;11.620;2022-11-18T01:27:13;93514.63;;;23.43;40.24
22389;BME280;11362;48.102;11.620;2022-11-18T01:29:38;93507.09;;;23.43;40.19
22389;BME280;11362;48.102;11.620;2022-11-18T01:32:04;93501.25;;;23.42;40.05
22389;BME280;11362;48.102;11.620;2022-11-18T01:34:29;93497.22;;;23.42;40.24
22389;BME280;11362;48.102;11.620;2022-11-18T01:36:54;93487.38;;;23.42;39.93
22389;BME280;11362;48.102;11.620;2022-11-18T01:39:20;93479.38;;;23.43;40.07
22389;BME280;11362;48.102;11.620;2022-11-18T01:41:45;93487.69;;;23.43;40.16
22389;BME280;11362;48.102;11.620;2022-11-18T01:47:13;93484.13;;;23.43;40.17
22389;BME280;11362;48.102;11.620;2022-11-18T01:49:39;93490.16;;;23.42;39.92
22389;BME280;11362;48.102;11.620;2022-11-18T01:52:04;93499.22;;;23.42;40.06
22389;BME280;11362;48.102;11.620;2022-11-18T01:54:33;93507.53;;;23.42;40.03
22389;BME280;11362;48.102;11.620;2022-11-18T01:57:02;93505.53;;;23.42;39.96
22389;BME280;11362;48.102;11.620;2022-11-18T01:59:31;93517.88;;;23.42;40.06
22389;BME280;11362;48.102;11.620;2022-11-18T02:01:58;93515.09;;;23.42;40.21
22389;BME280;11362;48.102;11.620;2022-11-18T02:04:25;93518.63;;;23.42;40.19
22389;BME280;11362;48.102;11.620;2022-11-18T02:06:52;93520.63;;;23.42;40.09
22389;BME280;11362;48.102;11.620;2022-11-18T02:09:19;93517.88;;;23.42;40.08
22389;BME280;11362;48.102;11.620;2022-11-18T02:11:44;93523.41;;;23.42;40.09
22389;BME280;11362;48.102;11.620;2022-11-18T02:14:10;93521.38;;;23.42;40.10
22389;BME280;11362;48.102;11.620;2022-11-18T02:22:29;93517.88;;;23.42;40.38
22389;BME280;11362;48.102;11.620;2022-11-18T02:28:28;93527.38;;;23.40;40.25
22389;BME280;11362;48.102;11.620;2022-11-18T02:38:56;93515.84;;;23.42;40.09
22389;BME280;11362;48.102;11.620;2022-11-18T02:41:26;93513.53;;;23.40;40.06
22389;BME280;11362;48.102;11.620;2022-11-18T02:43:55;93517.88;;;23.42;40.34
22389;BME280;11362;48.102;11.620;2022-11-18T02:46:30;93504.00;;;23.42;39.86
22389;BME280;11362;48.102;11.620;2022-11-18T02:48:56;93506.00;;;23.41;39.94
22389;BME280;11362;48.102;11.620;2022-11-18T02:51:27;93507.97;;;23.40;40.03
22389;BME280;11362;48.102;11.620;2022-11-18T02:54:00;93504.91;;;23.38;40.19
22389;BME280;11362;48.102;11.620;2022-11-18T02:56:27;93513.53;;;23.40;40.02
22389;BME280;11362;48.102;11.620;2022-11-18T02:58:53;93516.78;;;23.39;40.00
22389;BME280;11362;48.102;11.620;2022-11-18T03:01:25;93511.22;;;23.39;40.08
22389;BME280;11362;48.102;11.620;2022-11-18T03:03:51;93508.47;;;23.39;40.04
22389;BME280;11362;48.102;11.620;2022-11-18T03:09:18;93509.22;;;23.39;39.97
22389;BME280;11362;48.102;11.620;2022-11-18T03:14:55;93507.38;;;23.37;39.90
22389;BME280;11362;48.102;11.620;2022-11-18T03:22:56;93503.38;;;23.38;39.89
22389;BME280;11362;48.102;11.620;2022-11-18T03:28:09;93506.59;;;23.36;39.94
22389;BME280;11362;48.102;11.620;2022-11-18T03:30:43;93511.38;;;23.36;39.55
22389;BME280;11362;48.102;11.620;2022-11-18T03:33:16;93509.69;;;23.38;40.02
22389;BME280;11362;48.102;11.620;2022-11-18T03:35:45;93514.44;;;23.38;39.89
22389;BME280;11362;48.102;11.620;2022-11-18T03:38:17;93529.09;;;23.38;39.88
22389;BME280;11362;48.102;11.620;2022-11-18T03:40:49;93531.06;;;23.38;40.02
22389;BME280;11362;48.102;11.620;2022-11-18T03:43:20;93536.63;;;23.38;40.04
22389;BME280;11362;48.102;11.620;2022-11-18T03:46:00;93537.41;;;23.38;39.99
22389;BME280;11362;48.102;11.620;2022-11-18T03:48:33;93543.69;;;23.38;39.88
22389;BME280;11362;48.102;11.620;2022-11-18T03:51:12;93548.47;;;23.38;39.80
22389;BME280;11362;48.102;11.620;2022-11-18T03:53:43;93547.69;;;23.38;40.26
22389;BME280;11362;48.102;11.620;2022-11-18T03:56:16;93553.25;;;23.38;39.93
22389;BME280;11362;48.102;11.620;2022-11-18T03:59:04;93552.00;;;23.38;39.94
22389;BME280;11362;48.102;11.620;2022-11-18T04:01:40;93558.63;;;23.41;39.96
22389;BME280;11362;48.102;11.620;2022-11-18T04:04:09;93561.84;;;23.39;39.97
22389;BME280;11362;48.102;11.620;2022-11-18T04:06:50;93572.50;;;23.41;39.78
22389;BME280;11362;48.102;11.620;2022-11-18T04:09:24;93573.72;;;23.40;39.71
22389;BME280;11362;48.102;11.620;2022-11-18T04:11:54;93582.78;;;23.40;39.78
22389;BME280;11362;48.102;11.620;2022-11-18T04:14:23;93578.47;;;23.39;39.83
22389;BME280;11362;48.102;11.620;2022-11-18T04:16:50;93579.28;;;23.40;39.86
22389;BME280;11362;48.102;11.620;2022-11-18T04:19:16;93580.03;;;23.40;39.72
22389;BME280;11362;48.102;11.620;2022-11-18T04:21:41;93572.94;;;23.39;39.86
22389;BME280;11362;48.102;11.620;2022-11-18T04:24:06;93572.94;;;23.39;39.82
22389;BME280;11362;48.102;11.620;2022-11-18T04:26:32;93579.28;;;23.40;39.79
22389;BME280;11362;48.102;11.620;2022-11-18T04:28:57;93580.03;;;23.40;39.68
22389;BME280;11362;48.102;11.620;2022-11-18T04:31:22;93580.03;;;23.40;39.83
22389;BME280;11362;48.102;11.620;2022-11-18T04:33:48;93585.56;;;23.40;39.94
22389;BME280;11362;48.102;11.620;2022-11-18T04:36:13;93567.88;;;23.38;39.78
22389;BME280;11362;48.102;11.620;2022-11-18T04:38:38;93576.94;;;23.38;39.74
22389;BME280;11362;48.102;11.620;2022-11-18T04:41:04;93569.06;;;23.37;39.87
22389;BME280;11362;48.102;11.620;2022-11-18T04:43:29;93569.06;;;23.37;39.73
22389;BME280;11362;48.102;11.620;2022-11-18T04:45:54;93577.72;;;23.39;39.96
22389;BME280;11362;48.102;11.620;2022-11-18T04:48:19;93576.19;;;23.38;39.90
22389;BME280;11362;48.102;11.620;2022-11-18T04:50:45;93572.31;;;23.36;39.82
22389;BME280;11362;48.102;11.620;2022-11-18T04:53:10;93571.09;;;23.37;39.89
22389;BME280;11362;48.102;11.620;2022-11-18T04:55:35;93570.31;;;23.36;39.95
22389;BME280;11362;48.102;11.620;2022-11-18T04:58:01;93565.25;;;23.35;39.77
22389;BME280;11362;48.102;11.620;2022-11-18T05:00:27;93565.56;;;23.37;40.21
22389;BME280;11362;48.102;11.620;2022-11-18T05:02:52;93565.25;;;23.35;40.40
22389;BME280;11362;48.102;11.620;2022-11-18T05:05:18;93567.09;;;23.38;40.11
22389;BME280;11362;48.102;11.620;2022-11-18T05:07:43;93560.31;;;23.38;40.27
22389;BME280;11362;48.102;11.620;2022-11-18T05:10:08;93558.78;;;23.38;40.47
22389;BME280;11362;48.102;11.620;2022-11-18T05:12:34;93556.78;;;23.38;40.36
22389;BME280;11362;48.102;11.620;2022-11-18T05:15:00;93553.25;;;23.38;39.91
22389;BME280;11362;48.102;11.620;2022-11-18T05:17:25;93561.09;;;23.39;40.11
22389;BME280;11362;48.102;11.620;2022-11-18T05:19:51;93560.31;;;23.38;40.17
22389;BME280;11362;48.102;11.620;2022-11-18T05:22:16;93558.78;;;23.38;39.98
22389;BME280;11362;48.102;11.620;2022-11-18T05:24:41;93563.09;;;23.38;40.17
22389;BME280;11362;48.102;11.620;2022-11-18T05:27:07;93567.88;;;23.38;40.25
22389;BME280;11362;48.102;11.620;2022-11-18T05:29:32;93559.56;;;23.38;40.29
22389;BME280;11362;48.102;11.620;2022-11-18T05:31:57;93558.34;;;23.39;40.11
22389;BME280;11362;48.102;11.620;2022-11-18T05:34:22;93562.63;;;23.40;40.25
22389;BME280;11362;48.102;11.620;2022-11-18T05:36:48;93558.34;;;23.39;40.31
22389;BME280;11362;48.102;11.620;2022-11-18T05:39:13;93557.84;;;23.40;40.13
22389;BME280;11362;48.102;11.620;2022-11-18T05:41:38;93560.31;;;23.38;40.02
22389;BME280;11362;48.102;11.620;2022-11-18T05:44:04;93565.88;;;23.38;40.13
22389;BME280;11362;48.102;11.620;2022-11-18T05:46:30;93561.56;;;23.38;39.93
22389;BME280;11362;48.102;11.620;2022-11-18T05:48:56;93569.72;;;23.41;39.55
22389;BME280;11362;48.102;11.620;2022-11-18T05:51:21;93573.28;;;23.42;40.75
22389;BME280;11362;48.102;11.620;2022-11-18T05:53:48;93569.28;;;23.42;40.58
22389;BME280;11362;48.102;11.620;2022-11-18T05:56:27;93573.28;;;23.42;40.96
22389;BME280;11362;48.102;11.620;2022-11-18T05:58:53;93570.81;;;23.43;40.63
22389;BME280;11362;48.102;11.620;2022-11-18T06:01:22;93575.91;;;23.45;41.00
22389;BME280;11362;48.102;11.620;2022-11-18T06:03:48;93580.97;;;23.46;41.47
22389;BME280;11362;48.102;11.620;2022-11-18T06:06:16;93580.53;;;23.48;41.29
22389;BME280;11362;48.102;11.620;2022-11-18T06:08:47;93582.84;;;23.49;41.52
22389;BME280;11362;48.102;11.620;2022-11-18T06:11:14;93582.06;;;23.49;41.68
22389;BME280;11362;48.102;11.620;2022-11-18T06:13:49;93584.69;;;23.52;41.63
22389;BME280;11362;48.102;11.620;2022-11-18T06:16:22;93555.00;;;23.53;41.93
22389;BME280;11362;48.102;11.620;2022-11-18T06:18:49;93552.66;;;23.51;41.78
22389;BME280;11362;48.102;11.620;2022-11-18T06:21:14;93563.75;;;23.51;41.89
22389;BME280;11362;48.102;11.620;2022-11-18T06:23:40;93570.09;;;23.52;41.82
22389;BME280;11362;48.102;11.620;2022-11-18T06:26:07;93570.09;;;23.52;42.00
22389;BME280;11362;48.102;11.620;2022-11-18T06:28:33;93574.06;;;23.51;41.40
22389;BME280;11362;48.102;11.620;2022-11-18T06:30:58;93576.06;;;23.50;41.64
22389;BME280;11362;48.102;11.620;2022-11-18T06:33:23;93578.84;;;23.50;41.17
22389;BME280;11362;48.102;11.620;2022-11-18T06:35:48;93585.94;;;23.51;41.28
22389;BME280;11362;48.102;11.620;2022-11-18T06:38:14;93590.69;;;23.51;40.80
22389;BME280;11362;48.102;11.620;2022-11-18T06:40:39;93649.34;;;23.49;40.79
22389;BME280;11362;48.102;11.620;2022-11-18T06:43:08;93624.06;;;23.47;41.10
22389;BME280;11362;48.102;11.620;2022-11-18T06:45:34;93632.72;;;23.49;40.60
22389;BME280;11362;48.102;11.620;2022-11-18T06:47:59;93631.94;;;23.49;41.23
22389;BME280;11362;48.102;11.620;2022-11-18T06:50:26;93634.72;;;23.49;41.23
22389;BME280;11362;48.102;11.620;2022-11-18T06:52:52;93636.72;;;23.48;41.38
22389;BME280;11362;48.102;11.620;2022-11-18T06:55:17;93636.72;;;23.48;41.45
22389;BME280;11362;48.102;11.620;2022-11-18T06:57:43;93641.94;;;23.46;41.11
22389;BME280;11362;48.102;11.620;2022-11-18T07:00:08;93648.25;;;23.47;41.47
22389;BME280;11362;48.102;11.620;2022-11-18T07:02:37;93656.56;;;23.47;41.59
22389;BME280;11362;48.102;11.620;2022-11-18T07:05:04;93658.56;;;23.46;41.31
22389;BME280;11362;48.102;11.620;2022-11-18T07:07:29;93657.31;;;23.47;41.27
22389;BME280;11362;48.102;11.620;2022-11-18T07:09:55;93666.88;;;23.46;41.42
22389;BME280;11362;48.102;11.620;2022-11-18T07:12:20;93636.88;;;23.45;41.31
22389;BME280;11362;48.102;11.620;2022-11-18T07:14:46;93636.88;;;23.45;40.41
22389;BME280;11362;48.102;11.620;2022-11-18T07:17:11;93643.59;;;23.44;40.22
22389;BME280;11362;48.102;11.620;2022-11-18T07:19:38;93648.72;;;23.45;40.42
22389;BME280;11362;48.102;11.620;2022-11-18T07:22:03;93648.72;;;23.45;40.13
22389;BME280;11362;48.102;11.620;2022-11-18T07:24:29;93653.50;;;23.45;40.15
22389;BME280;11362;48.102;11.620;2022-11-18T07:26:54;93651.16;;;23.43;40.27
22389;BME280;11362;48.102;11.620;2022-11-18T07:29:19;93683.19;;;23.44;40.30
22389;BME280;11362;48.102;11.620;2022-11-18T07:31:45;93681.19;;;23.45;40.58
22389;BME280;11362;48.102;11.620;2022-11-18T07:34:11;93710.44;;;23.46;40.84
22389;BME280;11362;48.102;11.620;2022-11-18T07:36:36;93710.44;;;23.46;40.68
22389;BME280;11362;48.102;11.620;2022-11-18T07:39:03;93697.34;;;23.46;40.95
22389;BME280;11362;48.102;11.620;2022-11-18T07:41:29;93689.03;;;23.46;40.81
22389;BME280;11362;48.102;11.620;2022-11-18T07:43:56;93695.38;;;23.47;41.21
22389;BME280;11362;48.102;11.620;2022-11-18T07:46:36;93711.22;;;23.46;41.17
22389;BME280;11362;48.102;11.620;2022-11-18T07:49:06;93704.13;;;23.45;41.00
22389;BME280;11362;48.102;11.620;2022-11-18T07:51:34;93705.66;;;23.46;41.41
22389;BME280;11362;48.102;11.620;2022-11-18T07:54:00;93698.88;;;23.47;41.54
22389;BME280;11362;48.102;11.620;2022-11-18T07:56:29;93700.47;;;23.48;41.65
22389;BME280;11362;48.102;11.620;2022-11-18T07:58:55;93711.53;;;23.48;41.55
22389;BME280;11362;48.102;11.620;2022-11-18T08:01:22;93710.31;;;23.49;41.67
22389;BME280;11362;48.102;11.620;2022-11-18T08:03:48;93707.53;;;23.49;41.75
22389;BME280;11362;48.102;11.620;2022-11-18T08:06:16;93721.06;;;23.47;41.48
22389;BME280;11362;48.102;11.620;2022-11-18T08:08:42;93717.09;;;23.48;41.73
22389;BME280;11362;48.102;11.620;2022-11-18T08:11:14;93722.63;;;23.48;41.91
22389;BME280;11362;48.102;11.620;2022-11-18T08:13:40;93720.63;;;23.49;41.96
22389;BME280;11362;48.102;11.620;2022-11-18T08:16:13;93724.19;;;23.49;41.92
22389;BME280;11362;48.102;11.620;2022-11-18T08:18:39;93720.63;;;23.49;41.41
22389;BME280;11362;48.102;11.620;2022-11-18T08:21:04;93726.94;;;23.49;41.45
22389;BME280;11362;48.102;11.620;2022-11-18T08:23:30;93724.19;;;23.49;41.39
22389;BME280;11362;48.102;11.620;2022-11-18T08:26:07;93722.94;;;23.50;41.34
22389;BME280;11362;48.102;11.620;2022-11-18T08:28:33;93726.16;;;23.49;41.54
22389;BME280;11362;48.102;11.620;2022-11-18T08:30:58;93728.50;;;23.50;41.70
22389;BME280;11362;48.102;11.620;2022-11-18T08:33:23;93730.03;;;23.51;41.56
22389;BME280;11362;48.102;11.620;2022-11-18T08:35:49;93729.72;;;23.49;41.83
22389;BME280;11362;48.102;11.620;2022-11-18T08:38:14;93735.25;;;23.49;41.64
22389;BME280;11362;48.102;11.620;2022-11-18T08:40:42;93742.03;;;23.48;41.89
22389;BME280;11362;48.102;11.620;2022-11-18T08:43:10;93744.31;;;23.50;41.55
22389;BME280;11362;48.102;11.620;2022-11-18T08:45:38;93738.03;;;23.49;41.54
22389;BME280;11362;48.102;11.620;2022-11-18T08:48:03;93751.88;;;23.49;41.46
22389;BME280;11362;48.102;11.620;2022-11-18T08:50:28;93755.88;;;23.48;41.31
22389;BME280;11362;48.102;11.620;2022-11-18T08:52:54;93761.75;;;23.50;41.48
22389;BME280;11362;48.102;11.620;2022-11-18T08:55:19;93755.88;;;23.48;41.95
22389;BME280;11362;48.102;11.620;2022-11-18T08:57:44;93757.44;;;23.49;41.83
22389;BME280;11362;48.102;11.620;2022-11-18T09:00:10;93760.19;;;23.49;41.93
22389;BME280;11362;48.102;11.620;2022-11-18T09:02:36;93760.19;;;23.49;41.77
22389;BME280;11362;48.102;11.620;2022-11-18T09:05:01;93760.97;;;23.50;41.91
22389;BME280;11362;48.102;11.620;2022-11-18T09:07:27;93765.75;;;23.49;42.04
22389;BME280;11362;48.102;11.620;2022-11-18T09:09:53;93778.81;;;23.49;41.97
22389;BME280;11362;48.102;11.620;2022-11-18T09:12:18;93776.81;;;23.49;41.94
22389;BME280;11362;48.102;11.620;2022-11-18T09:14:44;93782.38;;;23.49;41.89
22389;BME280;11362;48.102;11.620;2022-11-18T09:17:09;93776.81;;;23.49;42.17
22389;BME280;11362;48.102;11.620;2022-11-18T09:19:35;93780.81;;;23.48;42.11
22389;BME280;11362;48.102;11.620;2022-11-18T09:22:00;93785.13;;;23.49;42.17
22389;BME280;11362;48.102;11.620;2022-11-18T09:24:25;93788.66;;;23.50;42.12
22389;BME280;11362;48.102;11.620;2022-11-18T09:26:51;93791.44;;;23.50;42.08
22389;BME280;11362;48.102;11.620;2022-11-18T09:29:16;93792.66;;;23.49;42.12
22389;BME280;11362;48.102;11.620;2022-11-18T09:31:41;93797.44;;;23.48;42.15
22389;BME280;11362;48.102;11.620;2022-11-18T09:34:07;93794.69;;;23.48;41.29
22389;BME280;11362;48.102;11.620;2022-11-18T09:36:32;93778.06;;;23.48;41.46
22389;BME280;11362;48.102;11.620;2022-11-18T09:38:58;93774.06;;;23.49;40.72
22389;BME280;11362;48.102;11.620;2022-11-18T09:46:47;93811.31;;;23.48;40.95
22389;BME280;11362;48.102;11.620;2022-11-18T09:49:25;93803.00;;;23.48;41.33
22389;BME280;11362;48.102;11.620;2022-11-18T09:51:52;93809.75;;;23.47;41.24
22389;BME280;11362;48.102;11.620;2022-11-18T09:54:21;93818.06;;;23.47;40.91
22389;BME280;11362;48.102;11.620;2022-11-18T09:56:49;93823.59;;;23.47;41.07
22389;BME280;11362;48.102;11.620;2022-11-18T09:59:18;93825.16;;;23.48;41.11
22389;BME280;11362;48.102;11.620;2022-11-18T10:01:44;93818.06;;;23.47;41.12
22389;BME280;11362;48.102;11.620;2022-11-18T10:04:15;93829.13;;;23.47;41.17
22389;BME280;11362;48.102;11.620;2022-11-18T10:06:41;93831.91;;;23.47;40.88
22389;BME280;11362;48.102;11.620;2022-11-18T10:09:17;93827.59;;;23.46;40.90
22389;BME280;11362;48.102;11.620;2022-11-18T10:12:06;93824.81;;;23.46;40.68
22389;BME280;11362;48.102;11.620;2022-11-18T10:17:34;93834.38;;;23.45;40.90
22389;BME280;11362;48.102;11.620;2022-11-18T10:20:29;93854.53;;;23.46;40.95
22389;BME280;11362;48.102;11.620;2022-11-18T10:23:22;93837.13;;;23.45;40.78
22389;BME280;11362;48.102;11.620;2022-11-18T10:25:48;93831.59;;;23.45;40.46
22389;BME280;11362;48.102;11.620;2022-11-18T10:30:39;93832.38;;;23.46;40.44
22389;BME280;11362;48.102;11.620;2022-11-18T10:33:26;93830.38;;;23.46;40.74
22389;BME280;11362;48.102;11.620;2022-11-18T10:36:09;93835.91;;;23.46;41.27
22389;BME280;11362;48.102;11.620;2022-11-18T10:38:34;93836.25;;;23.48;41.32
22389;BME280;11362;48.102;11.620;2022-11-18T10:41:02;93830.72;;;23.48;41.86
22389;BME280;11362;48.102;11.620;2022-11-18T10:46:16;93835.84;;;23.59;45.96
22389;BME280;11362;48.102;11.620;2022-11-18T10:48:41;93831.47;;;23.70;50.00
22389;BME280;11362;48.102;11.620;2022-11-18T10:51:21;93825.66;;;23.77;52.74
22389;BME280;11362;48.102;11.620;2022-11-18T10:53:46;93834.94;;;23.83;52.91
22389;BME280;11362;48.102;11.620;2022-11-18T10:56:12;93829.28;;;23.87;56.99
22389;BME280;11362;48.102;11.620;2022-11-18T10:58:43;93832.56;;;23.94;61.38
22389;BME280;11362;48.102;11.620;2022-11-18T11:01:21;93833.53;;;24.00;61.74
22389;BME280;11362;48.102;11.620;2022-11-18T11:08:58;93852.03;;;24.03;61.38
22389;BME280;11362;48.102;11.620;2022-11-18T11:11:28;93847.91;;;24.08;59.34
22389;BME280;11362;48.102;11.620;2022-11-18T11:13:59;93846.78;;;24.05;57.46
22389;BME280;11362;48.102;11.620;2022-11-18T11:16:26;93833.72;;;24.06;57.47
22389;BME280;11362;48.102;11.620;2022-11-18T11:18:58;93838.03;;;24.07;56.83
22389;BME280;11362;48.102;11.620;2022-11-18T11:21:25;93836.03;;;24.07;56.31
22389;BME280;11362;48.102;11.620;2022-11-18T11:23:50;93821.38;;;24.07;56.02
22389;BME280;11362;48.102;11.620;2022-11-18T11:26:29;93836.50;;;24.06;55.45
22389;BME280;11362;48.102;11.620;2022-11-18T11:30:04;93832.63;;;24.03;55.03
22389;BME280;11362;48.102;11.620;2022-11-18T11:37:35;93838.44;;;23.96;55.02
22389;BME280;11362;48.102;11.620;2022-11-18T11:40:24;93834.56;;;23.94;53.84
22389;BME280;11362;48.102;11.620;2022-11-18T11:46:03;93836.22;;;23.91;53.14
22389;BME280;11362;48.102;11.620;2022-11-18T11:48:54;93845.03;;;23.90;53.16
22389;BME280;11362;48.102;11.620;2022-11-18T11:51:30;93849.03;;;23.89;52.69
22389;BME280;11362;48.102;11.620;2022-11-18T12:00:13;93854.69;;;23.85;50.96
22389;BME280;11362;48.102;11.620;2022-11-18T12:05:39;93852.47;;;23.80;50.55
22389;BME280;11362;48.102;11.620;2022-11-18T12:08:22;93855.69;;;23.79;50.58
22389;BME280;11362;48.102;11.620;2022-11-18T12:14:20;93853.06;;;23.75;49.79
22389;BME280;11362;48.102;11.620;2022-11-18T12:16:59;93856.63;;;23.76;49.70
22389;BME280;11362;48.102;11.620;2022-11-18T12:19:27;93853.53;;;23.74;49.66
22389;BME280;11362;48.102;11.620;2022-11-18T12:21:58;93857.06;;;23.74;49.43
22389;BME280;11362;48.102;11.620;2022-11-18T12:27:00;93855.66;;;23.70;49.22
22389;BME280;11362;48.102;11.620;2022-11-18T12:29:34;93865.50;;;23.71;49.14
22389;BME280;11362;48.102;11.620;2022-11-18T12:32:00;93866.28;;;23.71;48.79
22389;BME280;11362;48.102;11.620;2022-11-18T12:42:39;93878.25;;;23.68;48.14
22389;BME280;11362;48.102;11.620;2022-11-18T12:48:37;93886.56;;;23.68;47.90
22389;BME280;11362;48.102;11.620;2022-11-18T12:53:45;93887.50;;;23.65;48.10
22389;BME280;11362;48.102;11.620;2022-11-18T13:01:13;93895.16;;;23.61;47.43
22389;BME280;11362;48.102;11.620;2022-11-18T13:03:40;93904.69;;;23.60;47.55
22389;BME280;11362;48.102;11.620;2022-11-18T13:06:30;93907.47;;;23.60;47.29
22389;BME280;11362;48.102;11.620;2022-11-18T13:08:59;93906.72;;;23.60;47.41
22389;BME280;11362;48.102;11.620;2022-11-18T13:11:27;93907.47;;;23.60;47.44
22389;BME280;11362;48.102;11.620;2022-11-18T13:13:53;93909.47;;;23.60;47.29
22389;BME280;11362;48.102;11.620;2022-11-18T13:16:23;93913.00;;;23.60;47.23
22389;BME280;11362;48.102;11.620;2022-11-18T13:18:53;93915.78;;;23.60;47.37
22389;BME280;11362;48.102;11.620;2022-11-18T13:21:24;93916.56;;;23.61;47.41
22389;BME280;11362;48.102;11.620;2022-11-18T13:23:59;93920.09;;;23.61;47.25
22389;BME280;11362;48.102;11.620;2022-11-18T13:31:52;93923.66;;;23.62;47.58
22389;BME280;11362;48.102;11.620;2022-11-18T13:34:27;93926.44;;;23.62;47.84
22389;BME280;11362;48.102;11.620;2022-11-18T13:36:54;93929.63;;;23.60;48.02
22389;BME280;11362;48.102;11.620;2022-11-18T13:39:30;93928.41;;;23.61;47.80
22389;BME280;11362;48.102;11.620;2022-11-18T13:42:05;93926.88;;;23.60;47.81
22389;BME280;11362;48.102;11.620;2022-11-18T13:44:35;93922.09;;;23.61;47.69
22389;BME280;11362;48.102;11.620;2022-11-18T13:49:41;93930.44;;;23.61;47.74
22389;BME280;11362;48.102;11.620;2022-11-18T13:52:33;93929.50;;;23.64;47.69
22389;BME280;11362;48.102;11.620;2022-11-18T13:55:01;93933.84;;;23.65;47.89
22389;BME280;11362;48.102;11.620;2022-11-18T13:57:29;93929.94;;;23.62;47.68
22389;BME280;11362;48.102;11.620;2022-11-18T14:00:06;93933.50;;;23.63;48.06
22389;BME280;11362;48.102;11.620;2022-11-18T14:02:43;93929.94;;;23.62;47.98
22389;BME280;11362;48.102;11.620;2022-11-18T14:05:16;93931.53;;;23.63;47.84
22389;BME280;11362;48.102;11.620;2022-11-18T14:07:54;93940.78;;;23.69;47.52
22389;BME280;11362;48.102;11.620;2022-11-18T14:10:43;93932.94;;;23.68;47.97
22389;BME280;11362;48.102;11.620;2022-11-18T14:13:17;93932.16;;;23.67;47.97
22389;BME280;11362;48.102;11.620;2022-11-18T14:15:44;93909.97;;;23.67;48.10
22389;BME280;11362;48.102;11.620;2022-11-18T14:18:36;93914.00;;;23.66;48.03
22389;BME280;11362;48.102;11.620;2022-11-18T14:21:04;93921.19;;;23.64;47.68
22389;BME280;11362;48.102;11.620;2022-11-18T14:23:33;93916.09;;;23.62;47.57
22389;BME280;11362;48.102;11.620;2022-11-18T14:26:02;93947.81;;;23.61;47.38
22389;BME280;11362;48.102;11.620;2022-11-18T14:28:35;93941.16;;;23.59;47.06
22389;BME280;11362;48.102;11.620;2022-11-18T14:33:30;93944.28;;;23.61;47.04
22389;BME280;11362;48.102;11.620;2022-11-18T14:35:59;93952.91;;;23.63;47.14
22389;BME280;11362;48.102;11.620;2022-11-18T14:38:34;93945.81;;;23.62;47.01
22389;BME280;11362;48.102;11.620;2022-11-18T14:41:03;93952.13;;;23.62;46.65
22389;BME280;11362;48.102;11.620;2022-11-18T14:43:28;93953.69;;;23.63;47.05
22389;BME280;11362;48.102;11.620;2022-11-18T14:45:58;93955.38;;;23.61;46.72